sensor_id;sensor_type;location;lat;lon;timestamp;P1;durP1;ratioP1;P2;durP2;ratioP2
52041;SDS011;38052;45.944;13.624;2023-03-16T00:02:12;0.40;;;0.10;;
52041;SDS011;38052;45.944;13.624;2023-03-16T00:04:39;0.40;;;0.10;;
52041;SDS011;38052;45.944;13.624;2023-03-16T00:07:06;0.63;;;0.00;;
52041;SDS011;38052;45.944;13.624;2023-03-16T00:09:33;1.55;;;0.17;;
52041;SDS011;38052;45.944;13.624;2023-03-16T00:12:00;0.38;;;0.10;;
52041;SDS011;38052;45.944;13.624;2023-03-16T00:14:30;0.60;;;0.20;;
52041;SDS011;38052;45.944;13.624;2023-03-16T00:16:59;1.05;;;0.20;;
52041;SDS011;38052;45.944;13.624;2023-03-16T00:19:26;0.93;;;0.10;;
52041;SDS011;38052;45.944;13.624;2023-03-16T00:21:52;0.28;;;0.10;;
52041;SDS011;38052;45.944;13.624;2023-03-16T00:24:19;1.33;;;0.32;;
52041;SDS011;38052;45.944;13.624;2023-03-16T00:26:48;0.43;;;0.10;;
52041;SDS011;38052;45.944;13.624;2023-03-16T00:29:18;0.45;;;0.10;;
52041;SDS011;38052;45.944;13.624;2023-03-16T00:31:46;0.32;;;0.30;;
52041;SDS011;38052;45.944;13.624;2023-03-16T00:34:13;0.60;;;0.20;;
52041;SDS011;38052;45.944;13.624;2023-03-16T00:36:40;0.95;;;0.10;;
52041;SDS011;38052;45.944;13.624;2023-03-16T00:39:06;0.75;;;0.10;;
52041;SDS011;38052;45.944;13.624;2023-03-16T00:41:35;2.20;;;0.30;;
52041;SDS011;38052;45.944;13.624;2023-03-16T00:44:03;0.80;;;0.20;;
52041;SDS011;38052;45.944;13.624;2023-03-16T00:46:30;0.90;;;0.10;;
52041;SDS011;38052;45.944;13.624;2023-03-16T00:48:58;0.43;;;0.10;;
52041;SDS011;38052;45.944;13.624;2023-03-16T00:51:27;1.85;;;0.30;;
52041;SDS011;38052;45.944;13.624;2023-03-16T00:53:55;1.85;;;0.10;;
52041;SDS011;38052;45.944;13.624;2023-03-16T00:56:21;0.43;;;0.10;;
52041;SDS011;38052;45.944;13.624;2023-03-16T00:58:47;0.35;;;0.08;;
52041;SDS011;38052;45.944;13.624;2023-03-16T01:01:15;0.85;;;0.08;;
52041;SDS011;38052;45.944;13.624;2023-03-16T01:03:41;0.35;;;0.10;;
52041;SDS011;38052;45.944;13.624;2023-03-16T01:06:09;0.40;;;0.10;;
52041;SDS011;38052;45.944;13.624;2023-03-16T01:08:36;0.93;;;0.20;;
52041;SDS011;38052;45.944;13.624;2023-03-16T01:11:04;0.63;;;0.10;;
52041;SDS011;38052;45.944;13.624;2023-03-16T01:13:30;0.43;;;0.05;;
52041;SDS011;38052;45.944;13.624;2023-03-16T01:15:57;0.73;;;0.13;;
52041;SDS011;38052;45.944;13.624;2023-03-16T01:18:24;0.28;;;0.00;;
52041;SDS011;38052;45.944;13.624;2023-03-16T01:20:50;0.10;;;0.00;;
52041;SDS011;38052;45.944;13.624;2023-03-16T01:23:17;0.50;;;0.10;;
52041;SDS011;38052;45.944;13.624;2023-03-16T01:25:44;0.30;;;0.10;;
52041;SDS011;38052;45.944;13.624;2023-03-16T01:28:17;1.85;;;0.15;;
52041;SDS011;38052;45.944;13.624;2023-03-16T01:30:43;1.05;;;0.10;;
52041;SDS011;38052;45.944;13.624;2023-03-16T01:33:16;0.10;;;0.00;;
52041;SDS011;38052;45.944;13.624;2023-03-16T01:35:50;0.22;;;0.10;;
52041;SDS011;38052;45.944;13.624;2023-03-16T01:38:16;0.00;;;0.00;;
52041;SDS011;38052;45.944;13.624;2023-03-16T01:40:43;0.45;;;0.10;;
52041;SDS011;38052;45.944;13.624;2023-03-16T01:43:09;0.32;;;0.05;;
52041;SDS011;38052;45.944;13.624;2023-03-16T01:48:20;0.38;;;0.10;;
52041;SDS011;38052;45.944;13.624;2023-03-16T01:50:48;0.20;;;0.10;;
52041;SDS011;38052;45.944;13.624;2023-03-16T01:53:16;0.75;;;0.20;;
52041;SDS011;38052;45.944;13.624;2023-03-16T01:55:43;1.08;;;0.40;;
52041;SDS011;38052;45.944;13.624;2023-03-16T01:58:10;2.40;;;0.20;;
52041;SDS011;38052;45.944;13.624;2023-03-16T02:00:38;0.30;;;0.10;;
52041;SDS011;38052;45.944;13.624;2023-03-16T02:03:23;1.48;;;0.38;;
52041;SDS011;38052;45.944;13.624;2023-03-16T02:08:21;1.70;;;0.20;;
52041;SDS011;38052;45.944;13.624;2023-03-16T02:10:47;1.02;;;0.17;;
52041;SDS011;38052;45.944;13.624;2023-03-16T02:13:14;0.65;;;0.20;;
52041;SDS011;38052;45.944;13.624;2023-03-16T02:15:40;0.82;;;0.20;;
52041;SDS011;38052;45.944;13.624;2023-03-16T02:18:07;0.45;;;0.20;;
52041;SDS011;38052;45.944;13.624;2023-03-16T02:23:00;0.95;;;0.20;;
52041;SDS011;38052;45.944;13.624;2023-03-16T02:25:37;0.93;;;0.30;;
52041;SDS011;38052;45.944;13.624;2023-03-16T02:30:39;1.02;;;0.30;;
52041;SDS011;38052;45.944;13.624;2023-03-16T02:33:06;0.57;;;0.10;;
52041;SDS011;38052;45.944;13.624;2023-03-16T02:35:32;0.80;;;0.30;;
52041;SDS011;38052;45.944;13.624;2023-03-16T02:37:59;0.43;;;0.20;;
52041;SDS011;38052;45.944;13.624;2023-03-16T02:40:29;0.85;;;0.15;;
52041;SDS011;38052;45.944;13.624;2023-03-16T02:45:26;3.22;;;0.30;;
52041;SDS011;38052;45.944;13.624;2023-03-16T02:47:53;1.48;;;0.30;;
52041;SDS011;38052;45.944;13.624;2023-03-16T02:50:20;0.88;;;0.20;;
52041;SDS011;38052;45.944;13.624;2023-03-16T02:52:46;0.75;;;0.20;;
52041;SDS011;38052;45.944;13.624;2023-03-16T02:55:13;0.60;;;0.30;;
52041;SDS011;38052;45.944;13.624;2023-03-16T02:57:39;1.35;;;0.28;;
52041;SDS011;38052;45.944;13.624;2023-03-16T03:00:06;1.73;;;0.28;;
52041;SDS011;38052;45.944;13.624;2023-03-16T03:02:41;1.67;;;0.30;;
52041;SDS011;38052;45.944;13.624;2023-03-16T03:05:07;1.80;;;0.30;;
52041;SDS011;38052;45.944;13.624;2023-03-16T03:07:33;1.58;;;0.20;;
52041;SDS011;38052;45.944;13.624;2023-03-16T03:10:00;1.45;;;0.28;;
52041;SDS011;38052;45.944;13.624;2023-03-16T03:12:30;0.68;;;0.20;;
52041;SDS011;38052;45.944;13.624;2023-03-16T03:14:56;0.77;;;0.22;;
52041;SDS011;38052;45.944;13.624;2023-03-16T03:17:22;2.75;;;0.30;;
52041;SDS011;38052;45.944;13.624;2023-03-16T03:19:55;1.05;;;0.20;;
52041;SDS011;38052;45.944;13.624;2023-03-16T03:22:21;1.60;;;0.30;;
52041;SDS011;38052;45.944;13.624;2023-03-16T03:24:47;0.60;;;0.20;;
52041;SDS011;38052;45.944;13.624;2023-03-16T03:27:15;2.95;;;0.50;;
52041;SDS011;38052;45.944;13.624;2023-03-16T03:29:41;0.93;;;0.20;;
52041;SDS011;38052;45.944;13.624;2023-03-16T03:32:08;4.63;;;0.35;;
52041;SDS011;38052;45.944;13.624;2023-03-16T03:34:35;4.60;;;0.55;;
52041;SDS011;38052;45.944;13.624;2023-03-16T03:37:02;1.25;;;0.35;;
52041;SDS011;38052;45.944;13.624;2023-03-16T03:39:28;2.55;;;0.50;;
52041;SDS011;38052;45.944;13.624;2023-03-16T03:41:55;0.90;;;0.20;;
52041;SDS011;38052;45.944;13.624;2023-03-16T03:44:22;2.08;;;0.40;;
52041;SDS011;38052;45.944;13.624;2023-03-16T03:46:49;2.42;;;0.40;;
52041;SDS011;38052;45.944;13.624;2023-03-16T03:49:18;1.50;;;0.22;;
52041;SDS011;38052;45.944;13.624;2023-03-16T03:51:45;0.60;;;0.20;;
52041;SDS011;38052;45.944;13.624;2023-03-16T03:54:11;1.15;;;0.35;;
52041;SDS011;38052;45.944;13.624;2023-03-16T03:56:38;1.70;;;0.40;;
52041;SDS011;38052;45.944;13.624;2023-03-16T03:59:05;2.13;;;0.40;;
52041;SDS011;38052;45.944;13.624;2023-03-16T04:01:31;1.73;;;0.30;;
52041;SDS011;38052;45.944;13.624;2023-03-16T04:03:57;0.77;;;0.22;;
52041;SDS011;38052;45.944;13.624;2023-03-16T04:06:24;2.65;;;0.52;;
52041;SDS011;38052;45.944;13.624;2023-03-16T04:08:50;1.10;;;0.30;;
52041;SDS011;38052;45.944;13.624;2023-03-16T04:11:18;0.68;;;0.20;;
52041;SDS011;38052;45.944;13.624;2023-03-16T04:13:45;1.40;;;0.20;;
52041;SDS011;38052;45.944;13.624;2023-03-16T04:16:11;1.65;;;0.65;;
52041;SDS011;38052;45.944;13.624;2023-03-16T04:18:40;1.40;;;0.20;;
52041;SDS011;38052;45.944;13.624;2023-03-16T04:21:07;1.20;;;0.47;;
52041;SDS011;38052;45.944;13.624;2023-03-16T04:23:36;1.10;;;0.32;;
52041;SDS011;38052;45.944;13.624;2023-03-16T04:26:03;2.50;;;0.32;;
52041;SDS011;38052;45.944;13.624;2023-03-16T04:28:29;2.00;;;0.45;;
52041;SDS011;38052;45.944;13.624;2023-03-16T04:31:00;1.30;;;0.20;;
52041;SDS011;38052;45.944;13.624;2023-03-16T04:33:26;1.25;;;0.30;;
52041;SDS011;38052;45.944;13.624;2023-03-16T04:35:52;0.73;;;0.30;;
52041;SDS011;38052;45.944;13.624;2023-03-16T04:38:19;0.88;;;0.30;;
52041;SDS011;38052;45.944;13.624;2023-03-16T04:40:46;3.08;;;0.43;;
52041;SDS011;38052;45.944;13.624;2023-03-16T04:43:13;1.27;;;0.30;;
52041;SDS011;38052;45.944;13.624;2023-03-16T04:45:39;2.20;;;0.60;;
52041;SDS011;38052;45.944;13.624;2023-03-16T04:48:06;0.75;;;0.30;;
52041;SDS011;38052;45.944;13.624;2023-03-16T04:50:32;1.85;;;0.40;;
52041;SDS011;38052;45.944;13.624;2023-03-16T04:52:58;1.27;;;0.40;;
52041;SDS011;38052;45.944;13.624;2023-03-16T04:55:25;0.68;;;0.20;;
52041;SDS011;38052;45.944;13.624;2023-03-16T04:57:51;0.60;;;0.30;;
52041;SDS011;38052;45.944;13.624;2023-03-16T05:00:18;1.80;;;0.30;;
52041;SDS011;38052;45.944;13.624;2023-03-16T05:02:45;0.85;;;0.30;;
52041;SDS011;38052;45.944;13.624;2023-03-16T05:05:11;1.67;;;0.52;;
52041;SDS011;38052;45.944;13.624;2023-03-16T05:07:38;1.23;;;0.25;;
52041;SDS011;38052;45.944;13.624;2023-03-16T05:10:06;1.08;;;0.32;;
52041;SDS011;38052;45.944;13.624;2023-03-16T05:12:32;1.67;;;1.58;;
52041;SDS011;38052;45.944;13.624;2023-03-16T05:14:59;2.22;;;0.77;;
52041;SDS011;38052;45.944;13.624;2023-03-16T05:17:25;1.65;;;0.63;;
52041;SDS011;38052;45.944;13.624;2023-03-16T05:19:52;1.77;;;0.70;;
52041;SDS011;38052;45.944;13.624;2023-03-16T05:22:19;0.77;;;0.30;;
52041;SDS011;38052;45.944;13.624;2023-03-16T05:24:45;1.10;;;0.40;;
52041;SDS011;38052;45.944;13.624;2023-03-16T05:27:12;3.05;;;0.88;;
52041;SDS011;38052;45.944;13.624;2023-03-16T05:29:38;1.42;;;0.43;;
52041;SDS011;38052;45.944;13.624;2023-03-16T05:32:05;3.50;;;0.65;;
52041;SDS011;38052;45.944;13.624;2023-03-16T05:34:31;4.28;;;1.25;;
52041;SDS011;38052;45.944;13.624;2023-03-16T05:36:58;2.80;;;1.35;;
52041;SDS011;38052;45.944;13.624;2023-03-16T05:39:24;2.38;;;1.17;;
52041;SDS011;38052;45.944;13.624;2023-03-16T05:41:52;6.53;;;1.27;;
52041;SDS011;38052;45.944;13.624;2023-03-16T05:44:19;2.70;;;1.00;;
52041;SDS011;38052;45.944;13.624;2023-03-16T05:46:45;2.08;;;1.15;;
52041;SDS011;38052;45.944;13.624;2023-03-16T05:49:11;5.10;;;0.73;;
52041;SDS011;38052;45.944;13.624;2023-03-16T05:51:37;2.83;;;0.57;;
52041;SDS011;38052;45.944;13.624;2023-03-16T05:54:03;2.08;;;0.60;;
52041;SDS011;38052;45.944;13.624;2023-03-16T05:56:31;2.78;;;0.60;;
52041;SDS011;38052;45.944;13.624;2023-03-16T05:58:58;2.47;;;0.70;;
52041;SDS011;38052;45.944;13.624;2023-03-16T06:01:24;2.28;;;0.77;;
52041;SDS011;38052;45.944;13.624;2023-03-16T06:03:51;3.47;;;0.70;;
52041;SDS011;38052;45.944;13.624;2023-03-16T06:06:18;4.32;;;1.02;;
52041;SDS011;38052;45.944;13.624;2023-03-16T06:08:44;2.20;;;0.70;;
52041;SDS011;38052;45.944;13.624;2023-03-16T06:11:11;1.15;;;0.57;;
52041;SDS011;38052;45.944;13.624;2023-03-16T06:13:38;2.85;;;0.60;;
52041;SDS011;38052;45.944;13.624;2023-03-16T06:16:05;1.50;;;0.43;;
52041;SDS011;38052;45.944;13.624;2023-03-16T06:18:32;4.93;;;0.50;;
52041;SDS011;38052;45.944;13.624;2023-03-16T06:20:58;4.60;;;1.52;;
52041;SDS011;38052;45.944;13.624;2023-03-16T06:23:25;1.58;;;0.80;;
52041;SDS011;38052;45.944;13.624;2023-03-16T06:25:51;2.83;;;0.60;;
52041;SDS011;38052;45.944;13.624;2023-03-16T06:28:19;5.25;;;1.25;;
52041;SDS011;38052;45.944;13.624;2023-03-16T06:30:45;3.65;;;0.82;;
52041;SDS011;38052;45.944;13.624;2023-03-16T06:33:12;2.22;;;1.20;;
52041;SDS011;38052;45.944;13.624;2023-03-16T06:35:39;3.35;;;1.25;;
52041;SDS011;38052;45.944;13.624;2023-03-16T06:38:06;2.67;;;0.75;;
52041;SDS011;38052;45.944;13.624;2023-03-16T06:40:33;2.20;;;1.23;;
52041;SDS011;38052;45.944;13.624;2023-03-16T06:42:59;4.60;;;0.93;;
52041;SDS011;38052;45.944;13.624;2023-03-16T06:45:26;3.75;;;1.10;;
52041;SDS011;38052;45.944;13.624;2023-03-16T06:47:52;7.32;;;1.23;;
52041;SDS011;38052;45.944;13.624;2023-03-16T06:50:19;4.50;;;0.80;;
52041;SDS011;38052;45.944;13.624;2023-03-16T06:52:45;3.28;;;1.27;;
52041;SDS011;38052;45.944;13.624;2023-03-16T06:55:12;4.05;;;1.13;;
52041;SDS011;38052;45.944;13.624;2023-03-16T06:57:39;7.20;;;1.27;;
52041;SDS011;38052;45.944;13.624;2023-03-16T07:00:06;6.85;;;2.42;;
52041;SDS011;38052;45.944;13.624;2023-03-16T07:02:32;4.68;;;2.15;;
52041;SDS011;38052;45.944;13.624;2023-03-16T07:05:00;6.80;;;1.83;;
52041;SDS011;38052;45.944;13.624;2023-03-16T07:07:26;6.10;;;1.67;;
52041;SDS011;38052;45.944;13.624;2023-03-16T07:09:52;3.80;;;1.30;;
52041;SDS011;38052;45.944;13.624;2023-03-16T07:12:19;15.70;;;1.40;;
52041;SDS011;38052;45.944;13.624;2023-03-16T07:14:45;6.95;;;1.17;;
52041;SDS011;38052;45.944;13.624;2023-03-16T07:17:13;7.38;;;1.42;;
52041;SDS011;38052;45.944;13.624;2023-03-16T07:19:39;5.40;;;1.38;;
52041;SDS011;38052;45.944;13.624;2023-03-16T07:22:06;6.57;;;1.17;;
52041;SDS011;38052;45.944;13.624;2023-03-16T07:24:33;3.67;;;1.13;;
52041;SDS011;38052;45.944;13.624;2023-03-16T07:26:59;5.38;;;1.20;;
52041;SDS011;38052;45.944;13.624;2023-03-16T07:29:26;14.00;;;1.40;;
52041;SDS011;38052;45.944;13.624;2023-03-16T07:31:53;6.95;;;1.55;;
52041;SDS011;38052;45.944;13.624;2023-03-16T07:34:19;4.70;;;1.10;;
52041;SDS011;38052;45.944;13.624;2023-03-16T07:36:46;2.92;;;1.00;;
52041;SDS011;38052;45.944;13.624;2023-03-16T07:39:17;6.47;;;1.50;;
52041;SDS011;38052;45.944;13.624;2023-03-16T07:41:43;6.82;;;0.95;;
52041;SDS011;38052;45.944;13.624;2023-03-16T07:44:10;4.78;;;0.65;;
52041;SDS011;38052;45.944;13.624;2023-03-16T07:46:37;2.58;;;0.60;;
52041;SDS011;38052;45.944;13.624;2023-03-16T07:49:03;2.67;;;1.00;;
52041;SDS011;38052;45.944;13.624;2023-03-16T07:51:30;1.95;;;0.60;;
52041;SDS011;38052;45.944;13.624;2023-03-16T07:53:56;1.63;;;0.47;;
52041;SDS011;38052;45.944;13.624;2023-03-16T07:56:22;1.52;;;0.50;;
52041;SDS011;38052;45.944;13.624;2023-03-16T07:58:49;1.33;;;0.50;;
52041;SDS011;38052;45.944;13.624;2023-03-16T08:01:16;1.42;;;0.38;;
52041;SDS011;38052;45.944;13.624;2023-03-16T08:03:42;1.98;;;1.15;;
52041;SDS011;38052;45.944;13.624;2023-03-16T08:06:09;2.33;;;0.50;;
52041;SDS011;38052;45.944;13.624;2023-03-16T08:08:36;3.17;;;0.52;;
52041;SDS011;38052;45.944;13.624;2023-03-16T08:11:02;1.98;;;0.30;;
52041;SDS011;38052;45.944;13.624;2023-03-16T08:13:29;1.42;;;0.50;;
52041;SDS011;38052;45.944;13.624;2023-03-16T08:15:55;1.02;;;0.45;;
52041;SDS011;38052;45.944;13.624;2023-03-16T08:18:26;3.10;;;0.60;;
52041;SDS011;38052;45.944;13.624;2023-03-16T08:20:52;2.05;;;0.70;;
52041;SDS011;38052;45.944;13.624;2023-03-16T08:23:19;1.60;;;0.63;;
52041;SDS011;38052;45.944;13.624;2023-03-16T08:25:46;3.65;;;0.40;;
52041;SDS011;38052;45.944;13.624;2023-03-16T08:28:16;1.55;;;0.47;;
52041;SDS011;38052;45.944;13.624;2023-03-16T08:30:46;2.88;;;0.40;;
52041;SDS011;38052;45.944;13.624;2023-03-16T08:33:14;2.40;;;0.43;;
52041;SDS011;38052;45.944;13.624;2023-03-16T08:35:43;1.88;;;0.77;;
52041;SDS011;38052;45.944;13.624;2023-03-16T08:38:10;3.17;;;0.40;;
52041;SDS011;38052;45.944;13.624;2023-03-16T08:40:36;3.38;;;0.52;;
52041;SDS011;38052;45.944;13.624;2023-03-16T08:43:02;1.52;;;0.60;;
52041;SDS011;38052;45.944;13.624;2023-03-16T08:45:29;1.05;;;0.40;;
52041;SDS011;38052;45.944;13.624;2023-03-16T08:47:55;1.20;;;0.40;;
52041;SDS011;38052;45.944;13.624;2023-03-16T08:50:23;0.85;;;0.30;;
52041;SDS011;38052;45.944;13.624;2023-03-16T08:52:50;1.55;;;0.32;;
52041;SDS011;38052;45.944;13.624;2023-03-16T08:55:16;2.00;;;0.30;;
52041;SDS011;38052;45.944;13.624;2023-03-16T08:57:44;2.40;;;0.40;;
52041;SDS011;38052;45.944;13.624;2023-03-16T09:00:12;1.65;;;0.30;;
52041;SDS011;38052;45.944;13.624;2023-03-16T09:02:40;2.13;;;0.70;;
52041;SDS011;38052;45.944;13.624;2023-03-16T09:05:08;1.00;;;0.35;;
52041;SDS011;38052;45.944;13.624;2023-03-16T09:07:35;0.82;;;0.20;;
52041;SDS011;38052;45.944;13.624;2023-03-16T09:10:02;2.00;;;0.52;;
52041;SDS011;38052;45.944;13.624;2023-03-16T09:12:30;3.75;;;1.05;;
52041;SDS011;38052;45.944;13.624;2023-03-16T09:14:56;0.90;;;0.22;;
52041;SDS011;38052;45.944;13.624;2023-03-16T09:17:22;2.08;;;0.32;;
52041;SDS011;38052;45.944;13.624;2023-03-16T09:19:49;2.83;;;0.57;;
52041;SDS011;38052;45.944;13.624;2023-03-16T09:22:15;1.48;;;0.30;;
52041;SDS011;38052;45.944;13.624;2023-03-16T09:24:42;1.42;;;0.40;;
52041;SDS011;38052;45.944;13.624;2023-03-16T09:27:08;4.18;;;0.52;;
52041;SDS011;38052;45.944;13.624;2023-03-16T09:29:35;1.10;;;0.45;;
52041;SDS011;38052;45.944;13.624;2023-03-16T09:32:02;0.73;;;0.20;;
52041;SDS011;38052;45.944;13.624;2023-03-16T09:34:28;2.42;;;0.30;;
52041;SDS011;38052;45.944;13.624;2023-03-16T09:36:55;1.30;;;0.30;;
52041;SDS011;38052;45.944;13.624;2023-03-16T09:39:21;1.35;;;0.32;;
52041;SDS011;38052;45.944;13.624;2023-03-16T09:46:56;1.08;;;0.20;;
52041;SDS011;38052;45.944;13.624;2023-03-16T09:49:26;1.75;;;0.40;;
52041;SDS011;38052;45.944;13.624;2023-03-16T09:51:54;3.42;;;0.65;;
52041;SDS011;38052;45.944;13.624;2023-03-16T09:54:30;0.45;;;0.15;;
52041;SDS011;38052;45.944;13.624;2023-03-16T09:56:59;1.50;;;0.40;;
52041;SDS011;38052;45.944;13.624;2023-03-16T09:59:27;1.17;;;0.20;;
52041;SDS011;38052;45.944;13.624;2023-03-16T10:02:04;0.52;;;0.30;;
52041;SDS011;38052;45.944;13.624;2023-03-16T10:12:09;1.00;;;0.28;;
52041;SDS011;38052;45.944;13.624;2023-03-16T10:17:28;1.40;;;0.20;;
52041;SDS011;38052;45.944;13.624;2023-03-16T10:19:56;1.48;;;0.25;;
52041;SDS011;38052;45.944;13.624;2023-03-16T10:27:32;0.65;;;0.30;;
52041;SDS011;38052;45.944;13.624;2023-03-16T10:30:00;1.85;;;0.40;;
52041;SDS011;38052;45.944;13.624;2023-03-16T10:32:31;2.58;;;0.40;;
52041;SDS011;38052;45.944;13.624;2023-03-16T10:35:01;0.43;;;0.20;;
52041;SDS011;38052;45.944;13.624;2023-03-16T10:37:29;0.90;;;0.40;;
52041;SDS011;38052;45.944;13.624;2023-03-16T10:39:56;0.93;;;0.20;;
52041;SDS011;38052;45.944;13.624;2023-03-16T10:42:25;1.98;;;0.38;;
52041;SDS011;38052;45.944;13.624;2023-03-16T10:44:58;0.35;;;0.20;;
52041;SDS011;38052;45.944;13.624;2023-03-16T10:47:27;1.23;;;0.30;;
52041;SDS011;38052;45.944;13.624;2023-03-16T10:49:55;2.05;;;0.47;;
52041;SDS011;38052;45.944;13.624;2023-03-16T10:54:54;1.30;;;0.30;;
52041;SDS011;38052;45.944;13.624;2023-03-16T10:59:48;3.20;;;0.47;;
52041;SDS011;38052;45.944;13.624;2023-03-16T11:02:20;0.70;;;0.30;;
52041;SDS011;38052;45.944;13.624;2023-03-16T11:04:47;0.82;;;0.35;;
52041;SDS011;38052;45.944;13.624;2023-03-16T11:07:18;3.72;;;0.40;;
52041;SDS011;38052;45.944;13.624;2023-03-16T11:09:44;1.17;;;0.38;;
52041;SDS011;38052;45.944;13.624;2023-03-16T11:12:25;2.97;;;0.30;;
52041;SDS011;38052;45.944;13.624;2023-03-16T11:14:52;2.47;;;0.40;;
52041;SDS011;38052;45.944;13.624;2023-03-16T11:17:27;2.22;;;0.30;;
52041;SDS011;38052;45.944;13.624;2023-03-16T11:19:57;1.58;;;0.30;;
52041;SDS011;38052;45.944;13.624;2023-03-16T11:22:25;1.25;;;0.43;;
52041;SDS011;38052;45.944;13.624;2023-03-16T11:27:23;1.25;;;0.55;;
52041;SDS011;38052;45.944;13.624;2023-03-16T11:32:34;2.03;;;0.30;;
52041;SDS011;38052;45.944;13.624;2023-03-16T11:35:01;2.00;;;0.30;;
52041;SDS011;38052;45.944;13.624;2023-03-16T11:45:22;1.70;;;0.28;;
52041;SDS011;38052;45.944;13.624;2023-03-16T11:53:10;1.70;;;0.40;;
52041;SDS011;38052;45.944;13.624;2023-03-16T11:55:42;1.77;;;0.50;;
52041;SDS011;38052;45.944;13.624;2023-03-16T11:58:35;2.33;;;0.50;;
52041;SDS011;38052;45.944;13.624;2023-03-16T12:11:36;1.05;;;0.40;;
52041;SDS011;38052;45.944;13.624;2023-03-16T12:14:07;1.23;;;0.30;;
52041;SDS011;38052;45.944;13.624;2023-03-16T12:19:20;0.98;;;0.50;;
52041;SDS011;38052;45.944;13.624;2023-03-16T12:21:48;1.35;;;0.30;;
52041;SDS011;38052;45.944;13.624;2023-03-16T12:26:45;1.73;;;0.50;;
52041;SDS011;38052;45.944;13.624;2023-03-16T12:29:17;2.05;;;0.25;;
52041;SDS011;38052;45.944;13.624;2023-03-16T12:39:30;1.17;;;0.30;;
52041;SDS011;38052;45.944;13.624;2023-03-16T12:42:02;1.85;;;0.60;;
52041;SDS011;38052;45.944;13.624;2023-03-16T12:44:53;1.63;;;0.45;;
52041;SDS011;38052;45.944;13.624;2023-03-16T12:49:48;0.80;;;0.22;;
52041;SDS011;38052;45.944;13.624;2023-03-16T12:52:16;3.47;;;0.60;;
52041;SDS011;38052;45.944;13.624;2023-03-16T12:55:06;4.03;;;0.77;;
52041;SDS011;38052;45.944;13.624;2023-03-16T13:00:01;2.10;;;0.57;;
52041;SDS011;38052;45.944;13.624;2023-03-16T13:02:34;2.53;;;0.60;;
52041;SDS011;38052;45.944;13.624;2023-03-16T13:05:07;1.98;;;0.57;;
52041;SDS011;38052;45.944;13.624;2023-03-16T13:07:33;1.88;;;0.30;;
52041;SDS011;38052;45.944;13.624;2023-03-16T13:10:02;1.25;;;0.40;;
52041;SDS011;38052;45.944;13.624;2023-03-16T13:12:33;0.98;;;0.47;;
52041;SDS011;38052;45.944;13.624;2023-03-16T13:15:01;1.63;;;0.30;;
52041;SDS011;38052;45.944;13.624;2023-03-16T13:17:31;1.30;;;0.30;;
52041;SDS011;38052;45.944;13.624;2023-03-16T13:22:28;1.52;;;0.70;;
52041;SDS011;38052;45.944;13.624;2023-03-16T13:24:59;2.15;;;0.75;;
52041;SDS011;38052;45.944;13.624;2023-03-16T13:27:36;1.50;;;0.60;;
52041;SDS011;38052;45.944;13.624;2023-03-16T13:30:17;3.85;;;0.70;;
52041;SDS011;38052;45.944;13.624;2023-03-16T13:32:47;2.53;;;0.60;;
52041;SDS011;38052;45.944;13.624;2023-03-16T13:35:19;3.28;;;0.68;;
52041;SDS011;38052;45.944;13.624;2023-03-16T13:37:46;1.42;;;0.52;;
52041;SDS011;38052;45.944;13.624;2023-03-16T13:42:47;2.92;;;0.68;;
52041;SDS011;38052;45.944;13.624;2023-03-16T13:45:18;2.03;;;0.70;;
52041;SDS011;38052;45.944;13.624;2023-03-16T13:47:46;1.63;;;0.60;;
52041;SDS011;38052;45.944;13.624;2023-03-16T13:50:14;1.50;;;0.57;;
52041;SDS011;38052;45.944;13.624;2023-03-16T13:52:41;1.27;;;0.90;;
52041;SDS011;38052;45.944;13.624;2023-03-16T13:55:17;2.38;;;0.73;;
52041;SDS011;38052;45.944;13.624;2023-03-16T13:57:46;4.22;;;0.50;;
52041;SDS011;38052;45.944;13.624;2023-03-16T14:02:45;1.98;;;0.77;;
52041;SDS011;38052;45.944;13.624;2023-03-16T14:05:45;1.75;;;0.50;;
52041;SDS011;38052;45.944;13.624;2023-03-16T14:08:11;2.10;;;0.50;;
52041;SDS011;38052;45.944;13.624;2023-03-16T14:10:39;1.20;;;0.50;;
52041;SDS011;38052;45.944;13.624;2023-03-16T14:15:53;1.92;;;0.95;;
52041;SDS011;38052;45.944;13.624;2023-03-16T14:18:21;3.60;;;0.60;;
52041;SDS011;38052;45.944;13.624;2023-03-16T14:20:50;3.45;;;0.47;;
52041;SDS011;38052;45.944;13.624;2023-03-16T14:23:20;2.08;;;0.88;;
52041;SDS011;38052;45.944;13.624;2023-03-16T14:25:48;1.73;;;0.60;;
52041;SDS011;38052;45.944;13.624;2023-03-16T14:28:16;1.17;;;0.50;;
52041;SDS011;38052;45.944;13.624;2023-03-16T14:30:51;1.45;;;0.73;;
52041;SDS011;38052;45.944;13.624;2023-03-16T14:33:26;1.63;;;0.60;;
52041;SDS011;38052;45.944;13.624;2023-03-16T14:35:54;1.00;;;0.38;;
52041;SDS011;38052;45.944;13.624;2023-03-16T14:38:21;1.83;;;0.77;;
52041;SDS011;38052;45.944;13.624;2023-03-16T14:40:54;1.50;;;0.63;;
52041;SDS011;38052;45.944;13.624;2023-03-16T14:43:26;1.35;;;0.52;;
52041;SDS011;38052;45.944;13.624;2023-03-16T14:45:53;1.58;;;0.57;;
52041;SDS011;38052;45.944;13.624;2023-03-16T14:48:20;2.70;;;0.70;;
52041;SDS011;38052;45.944;13.624;2023-03-16T14:50:48;1.55;;;0.47;;
52041;SDS011;38052;45.944;13.624;2023-03-16T14:53:16;3.22;;;0.60;;
52041;SDS011;38052;45.944;13.624;2023-03-16T14:55:43;1.25;;;0.70;;
52041;SDS011;38052;45.944;13.624;2023-03-16T14:58:09;2.63;;;0.70;;
52041;SDS011;38052;45.944;13.624;2023-03-16T15:00:36;3.63;;;0.80;;
52041;SDS011;38052;45.944;13.624;2023-03-16T15:05:33;1.38;;;0.68;;
52041;SDS011;38052;45.944;13.624;2023-03-16T15:10:28;1.63;;;0.90;;
52041;SDS011;38052;45.944;13.624;2023-03-16T15:12:57;2.60;;;0.80;;
52041;SDS011;38052;45.944;13.624;2023-03-16T15:15:37;1.75;;;1.27;;
52041;SDS011;38052;45.944;13.624;2023-03-16T15:18:03;3.25;;;0.88;;
52041;SDS011;38052;45.944;13.624;2023-03-16T15:20:33;2.95;;;0.88;;
52041;SDS011;38052;45.944;13.624;2023-03-16T15:23:00;1.92;;;0.73;;
52041;SDS011;38052;45.944;13.624;2023-03-16T15:25:38;1.27;;;0.47;;
52041;SDS011;38052;45.944;13.624;2023-03-16T15:30:31;1.88;;;1.00;;
52041;SDS011;38052;45.944;13.624;2023-03-16T15:32:58;1.52;;;0.93;;
52041;SDS011;38052;45.944;13.624;2023-03-16T15:35:24;1.55;;;0.85;;
52041;SDS011;38052;45.944;13.624;2023-03-16T15:37:51;2.78;;;1.42;;
52041;SDS011;38052;45.944;13.624;2023-03-16T15:40:19;2.55;;;1.15;;
52041;SDS011;38052;45.944;13.624;2023-03-16T15:42:46;1.40;;;0.82;;
52041;SDS011;38052;45.944;13.624;2023-03-16T15:45:12;2.85;;;0.88;;
52041;SDS011;38052;45.944;13.624;2023-03-16T15:47:41;3.22;;;0.98;;
52041;SDS011;38052;45.944;13.624;2023-03-16T15:50:09;2.13;;;0.73;;
52041;SDS011;38052;45.944;13.624;2023-03-16T15:52:36;2.20;;;0.93;;
52041;SDS011;38052;45.944;13.624;2023-03-16T15:55:03;2.50;;;0.77;;
52041;SDS011;38052;45.944;13.624;2023-03-16T15:57:32;1.85;;;0.90;;
52041;SDS011;38052;45.944;13.624;2023-03-16T15:59:58;2.40;;;1.00;;
52041;SDS011;38052;45.944;13.624;2023-03-16T16:02:27;1.08;;;0.65;;
52041;SDS011;38052;45.944;13.624;2023-03-16T16:04:54;2.28;;;0.60;;
52041;SDS011;38052;45.944;13.624;2023-03-16T16:07:21;2.63;;;0.55;;
52041;SDS011;38052;45.944;13.624;2023-03-16T16:09:48;3.13;;;0.82;;
52041;SDS011;38052;45.944;13.624;2023-03-16T16:12:15;1.90;;;0.80;;
52041;SDS011;38052;45.944;13.624;2023-03-16T16:14:42;1.85;;;0.68;;
52041;SDS011;38052;45.944;13.624;2023-03-16T16:17:13;5.10;;;0.88;;
52041;SDS011;38052;45.944;13.624;2023-03-16T16:19:43;4.10;;;0.88;;
52041;SDS011;38052;45.944;13.624;2023-03-16T16:22:12;2.25;;;1.38;;